sensor_id;sensor_type;location;lat;lon;timestamp;P1;durP1;ratioP1;P2;durP2;ratioP2
14554;SDS011;7364;50.870;4.722;2024-02-21T00:00:37;17.10;;;9.90;;
14554;SDS011;7364;50.870;4.722;2024-02-21T00:03:06;17.77;;;10.77;;
14554;SDS011;7364;50.870;4.722;2024-02-21T00:05:34;17.73;;;11.03;;
14554;SDS011;7364;50.870;4.722;2024-02-21T00:08:01;15.07;;;9.97;;
14554;SDS011;7364;50.870;4.722;2024-02-21T00:10:30;15.07;;;10.70;;
14554;SDS011;7364;50.870;4.722;2024-02-21T00:12:58;18.13;;;10.97;;
14554;SDS011;7364;50.870;4.722;2024-02-21T00:15:25;18.87;;;11.10;;
14554;SDS011;7364;50.870;4.722;2024-02-21T00:17:52;18.63;;;11.03;;
14554;SDS011;7364;50.870;4.722;2024-02-21T00:20:20;18.73;;;10.80;;
14554;SDS011;7364;50.870;4.722;2024-02-21T00:22:50;22.63;;;11.63;;
14554;SDS011;7364;50.870;4.722;2024-02-21T00:25:17;21.33;;;11.03;;
14554;SDS011;7364;50.870;4.722;2024-02-21T00:27:46;22.53;;;11.37;;
14554;SDS011;7364;50.870;4.722;2024-02-21T00:30:13;17.30;;;10.83;;
14554;SDS011;7364;50.870;4.722;2024-02-21T00:32:40;13.43;;;9.63;;
14554;SDS011;7364;50.870;4.722;2024-02-21T00:35:08;19.07;;;10.40;;
14554;SDS011;7364;50.870;4.722;2024-02-21T00:37:35;15.87;;;10.73;;
14554;SDS011;7364;50.870;4.722;2024-02-21T00:40:02;17.90;;;10.30;;
14554;SDS011;7364;50.870;4.722;2024-02-21T00:42:31;20.77;;;11.30;;
14554;SDS011;7364;50.870;4.722;2024-02-21T00:44:59;13.53;;;9.63;;
14554;SDS011;7364;50.870;4.722;2024-02-21T00:47:26;19.10;;;10.07;;
14554;SDS011;7364;50.870;4.722;2024-02-21T00:49:53;20.87;;;10.43;;
14554;SDS011;7364;50.870;4.722;2024-02-21T00:52:20;17.70;;;11.20;;
14554;SDS011;7364;50.870;4.722;2024-02-21T00:54:47;13.30;;;9.07;;
14554;SDS011;7364;50.870;4.722;2024-02-21T00:57:15;17.30;;;8.93;;
14554;SDS011;7364;50.870;4.722;2024-02-21T00:59:42;18.60;;;9.57;;
14554;SDS011;7364;50.870;4.722;2024-02-21T01:02:10;18.83;;;9.57;;
14554;SDS011;7364;50.870;4.722;2024-02-21T01:04:37;14.80;;;9.13;;
14554;SDS011;7364;50.870;4.722;2024-02-21T01:07:04;19.33;;;8.67;;
14554;SDS011;7364;50.870;4.722;2024-02-21T01:09:31;23.17;;;10.57;;
14554;SDS011;7364;50.870;4.722;2024-02-21T01:11:58;13.53;;;9.97;;
14554;SDS011;7364;50.870;4.722;2024-02-21T01:14:26;18.00;;;9.63;;
14554;SDS011;7364;50.870;4.722;2024-02-21T01:16:53;16.43;;;9.47;;
14554;SDS011;7364;50.870;4.722;2024-02-21T01:19:21;11.43;;;7.77;;
14554;SDS011;7364;50.870;4.722;2024-02-21T01:21:50;13.73;;;8.63;;
14554;SDS011;7364;50.870;4.722;2024-02-21T01:24:17;16.10;;;7.67;;
14554;SDS011;7364;50.870;4.722;2024-02-21T01:26:44;20.60;;;9.43;;
14554;SDS011;7364;50.870;4.722;2024-02-21T01:29:12;11.93;;;8.27;;
14554;SDS011;7364;50.870;4.722;2024-02-21T01:31:39;16.43;;;8.53;;
14554;SDS011;7364;50.870;4.722;2024-02-21T01:34:06;16.30;;;8.40;;
14554;SDS011;7364;50.870;4.722;2024-02-21T01:36:35;12.50;;;8.30;;
14554;SDS011;7364;50.870;4.722;2024-02-21T01:39:06;15.57;;;8.33;;
14554;SDS011;7364;50.870;4.722;2024-02-21T01:41:33;12.77;;;8.57;;
14554;SDS011;7364;50.870;4.722;2024-02-21T01:44:01;16.90;;;8.30;;
14554;SDS011;7364;50.870;4.722;2024-02-21T01:46:28;13.73;;;7.60;;
14554;SDS011;7364;50.870;4.722;2024-02-21T01:48:55;13.33;;;7.77;;
14554;SDS011;7364;50.870;4.722;2024-02-21T01:51:23;11.67;;;7.10;;
14554;SDS011;7364;50.870;4.722;2024-02-21T01:53:52;14.37;;;8.30;;
14554;SDS011;7364;50.870;4.722;2024-02-21T01:56:21;21.93;;;8.40;;
14554;SDS011;7364;50.870;4.722;2024-02-21T01:58:49;13.17;;;7.87;;
14554;SDS011;7364;50.870;4.722;2024-02-21T02:01:17;15.37;;;8.37;;
14554;SDS011;7364;50.870;4.722;2024-02-21T02:03:45;20.23;;;8.43;;
14554;SDS011;7364;50.870;4.722;2024-02-21T02:06:11;13.10;;;7.37;;
14554;SDS011;7364;50.870;4.722;2024-02-21T02:08:39;14.43;;;7.73;;
14554;SDS011;7364;50.870;4.722;2024-02-21T02:11:08;13.30;;;7.77;;
14554;SDS011;7364;50.870;4.722;2024-02-21T02:13:36;10.10;;;7.10;;
14554;SDS011;7364;50.870;4.722;2024-02-21T02:16:03;14.23;;;7.33;;
14554;SDS011;7364;50.870;4.722;2024-02-21T02:18:31;15.83;;;8.63;;
14554;SDS011;7364;50.870;4.722;2024-02-21T02:20:59;11.93;;;7.53;;
14554;SDS011;7364;50.870;4.722;2024-02-21T02:23:27;17.77;;;7.83;;
14554;SDS011;7364;50.870;4.722;2024-02-21T02:25:56;26.87;;;8.30;;
14554;SDS011;7364;50.870;4.722;2024-02-21T02:28:24;22.53;;;8.17;;
14554;SDS011;7364;50.870;4.722;2024-02-21T02:30:51;13.77;;;7.87;;
14554;SDS011;7364;50.870;4.722;2024-02-21T02:33:19;19.27;;;7.80;;
14554;SDS011;7364;50.870;4.722;2024-02-21T02:35:46;12.47;;;7.90;;
14554;SDS011;7364;50.870;4.722;2024-02-21T02:38:13;16.43;;;7.27;;
14554;SDS011;7364;50.870;4.722;2024-02-21T02:40:41;13.90;;;8.40;;
14554;SDS011;7364;50.870;4.722;2024-02-21T02:43:12;14.73;;;7.70;;
14554;SDS011;7364;50.870;4.722;2024-02-21T02:45:39;15.73;;;7.67;;
14554;SDS011;7364;50.870;4.722;2024-02-21T02:48:06;15.07;;;8.03;;
14554;SDS011;7364;50.870;4.722;2024-02-21T02:50:34;22.30;;;8.07;;
14554;SDS011;7364;50.870;4.722;2024-02-21T02:53:01;11.33;;;7.77;;
14554;SDS011;7364;50.870;4.722;2024-02-21T02:55:28;13.13;;;7.73;;
14554;SDS011;7364;50.870;4.722;2024-02-21T02:57:57;13.47;;;7.97;;
14554;SDS011;7364;50.870;4.722;2024-02-21T03:00:24;10.97;;;7.60;;
14554;SDS011;7364;50.870;4.722;2024-02-21T03:02:52;11.73;;;6.83;;
14554;SDS011;7364;50.870;4.722;2024-02-21T03:05:20;12.13;;;7.27;;
14554;SDS011;7364;50.870;4.722;2024-02-21T03:07:48;13.90;;;7.43;;
14554;SDS011;7364;50.870;4.722;2024-02-21T03:10:17;13.93;;;7.70;;
14554;SDS011;7364;50.870;4.722;2024-02-21T03:12:44;9.53;;;7.23;;
14554;SDS011;7364;50.870;4.722;2024-02-21T03:15:13;16.17;;;8.33;;
14554;SDS011;7364;50.870;4.722;2024-02-21T03:17:41;15.90;;;6.97;;
14554;SDS011;7364;50.870;4.722;2024-02-21T03:20:08;16.20;;;7.10;;
14554;SDS011;7364;50.870;4.722;2024-02-21T03:22:37;12.07;;;7.43;;
14554;SDS011;7364;50.870;4.722;2024-02-21T03:25:04;10.30;;;7.10;;
14554;SDS011;7364;50.870;4.722;2024-02-21T03:27:32;14.77;;;6.97;;
14554;SDS011;7364;50.870;4.722;2024-02-21T03:29:59;11.63;;;7.03;;
14554;SDS011;7364;50.870;4.722;2024-02-21T03:32:28;17.77;;;7.63;;
14554;SDS011;7364;50.870;4.722;2024-02-21T03:34:56;10.40;;;7.50;;
14554;SDS011;7364;50.870;4.722;2024-02-21T03:37:23;12.23;;;7.13;;
14554;SDS011;7364;50.870;4.722;2024-02-21T03:39:51;12.13;;;7.20;;
14554;SDS011;7364;50.870;4.722;2024-02-21T03:42:18;12.73;;;6.70;;
14554;SDS011;7364;50.870;4.722;2024-02-21T03:44:45;15.13;;;8.37;;
14554;SDS011;7364;50.870;4.722;2024-02-21T03:47:12;14.20;;;7.17;;
14554;SDS011;7364;50.870;4.722;2024-02-21T03:49:41;11.00;;;6.43;;
14554;SDS011;7364;50.870;4.722;2024-02-21T03:52:08;11.87;;;7.20;;
14554;SDS011;7364;50.870;4.722;2024-02-21T03:54:35;16.50;;;7.73;;
14554;SDS011;7364;50.870;4.722;2024-02-21T03:57:04;10.17;;;7.17;;
14554;SDS011;7364;50.870;4.722;2024-02-21T03:59:31;13.17;;;7.33;;
14554;SDS011;7364;50.870;4.722;2024-02-21T04:01:59;10.67;;;7.23;;
14554;SDS011;7364;50.870;4.722;2024-02-21T04:04:26;16.00;;;6.77;;
14554;SDS011;7364;50.870;4.722;2024-02-21T04:06:54;13.17;;;7.30;;
14554;SDS011;7364;50.870;4.722;2024-02-21T04:09:22;14.07;;;7.00;;
14554;SDS011;7364;50.870;4.722;2024-02-21T04:11:49;14.60;;;7.33;;
14554;SDS011;7364;50.870;4.722;2024-02-21T04:14:16;14.13;;;7.67;;
14554;SDS011;7364;50.870;4.722;2024-02-21T04:16:43;11.87;;;6.63;;
14554;SDS011;7364;50.870;4.722;2024-02-21T04:19:10;20.10;;;7.97;;
14554;SDS011;7364;50.870;4.722;2024-02-21T04:21:37;11.77;;;6.83;;
14554;SDS011;7364;50.870;4.722;2024-02-21T04:24:06;13.67;;;8.27;;
14554;SDS011;7364;50.870;4.722;2024-02-21T04:26:34;16.80;;;7.40;;
14554;SDS011;7364;50.870;4.722;2024-02-21T04:29:01;13.73;;;7.60;;
14554;SDS011;7364;50.870;4.722;2024-02-21T04:31:28;10.67;;;7.00;;
14554;SDS011;7364;50.870;4.722;2024-02-21T04:33:56;12.77;;;7.37;;
14554;SDS011;7364;50.870;4.722;2024-02-21T04:36:23;12.77;;;7.80;;
14554;SDS011;7364;50.870;4.722;2024-02-21T04:38:50;17.97;;;7.93;;
14554;SDS011;7364;50.870;4.722;2024-02-21T04:41:18;12.63;;;7.13;;
14554;SDS011;7364;50.870;4.722;2024-02-21T04:43:46;9.60;;;7.20;;
14554;SDS011;7364;50.870;4.722;2024-02-21T04:46:13;12.23;;;7.73;;
14554;SDS011;7364;50.870;4.722;2024-02-21T04:48:40;12.37;;;7.43;;
14554;SDS011;7364;50.870;4.722;2024-02-21T04:51:08;19.33;;;7.83;;
14554;SDS011;7364;50.870;4.722;2024-02-21T04:53:36;15.67;;;7.67;;
14554;SDS011;7364;50.870;4.722;2024-02-21T04:56:04;12.63;;;7.17;;
14554;SDS011;7364;50.870;4.722;2024-02-21T04:58:33;11.97;;;7.33;;
14554;SDS011;7364;50.870;4.722;2024-02-21T05:01:03;11.93;;;7.30;;
14554;SDS011;7364;50.870;4.722;2024-02-21T05:03:31;15.10;;;7.30;;
14554;SDS011;7364;50.870;4.722;2024-02-21T05:05:59;13.43;;;6.80;;
14554;SDS011;7364;50.870;4.722;2024-02-21T05:08:27;18.47;;;7.73;;
14554;SDS011;7364;50.870;4.722;2024-02-21T05:10:54;14.87;;;7.37;;
14554;SDS011;7364;50.870;4.722;2024-02-21T05:13:21;11.90;;;7.30;;
14554;SDS011;7364;50.870;4.722;2024-02-21T05:15:50;12.77;;;7.30;;
14554;SDS011;7364;50.870;4.722;2024-02-21T05:18:18;16.30;;;6.50;;
14554;SDS011;7364;50.870;4.722;2024-02-21T05:20:46;16.70;;;7.87;;
14554;SDS011;7364;50.870;4.722;2024-02-21T05:23:13;10.80;;;6.50;;
14554;SDS011;7364;50.870;4.722;2024-02-21T05:25:40;18.03;;;7.53;;
14554;SDS011;7364;50.870;4.722;2024-02-21T05:28:07;15.10;;;7.40;;
14554;SDS011;7364;50.870;4.722;2024-02-21T05:30:35;14.57;;;7.27;;
14554;SDS011;7364;50.870;4.722;2024-02-21T05:33:07;16.23;;;6.83;;
14554;SDS011;7364;50.870;4.722;2024-02-21T05:35:34;17.23;;;7.20;;
14554;SDS011;7364;50.870;4.722;2024-02-21T05:38:02;12.17;;;6.70;;
14554;SDS011;7364;50.870;4.722;2024-02-21T05:40:36;10.33;;;6.50;;
14554;SDS011;7364;50.870;4.722;2024-02-21T05:43:03;9.47;;;6.30;;
14554;SDS011;7364;50.870;4.722;2024-02-21T05:45:31;18.37;;;6.40;;
14554;SDS011;7364;50.870;4.722;2024-02-21T05:47:58;11.07;;;6.57;;
14554;SDS011;7364;50.870;4.722;2024-02-21T05:50:27;10.37;;;6.20;;
14554;SDS011;7364;50.870;4.722;2024-02-21T05:52:55;13.83;;;6.23;;
14554;SDS011;7364;50.870;4.722;2024-02-21T05:55:22;8.63;;;5.57;;
14554;SDS011;7364;50.870;4.722;2024-02-21T05:57:53;6.87;;;5.03;;
14554;SDS011;7364;50.870;4.722;2024-02-21T06:00:20;11.13;;;5.43;;
14554;SDS011;7364;50.870;4.722;2024-02-21T06:02:47;12.10;;;6.10;;
14554;SDS011;7364;50.870;4.722;2024-02-21T06:05:15;10.37;;;5.13;;
14554;SDS011;7364;50.870;4.722;2024-02-21T06:07:43;8.43;;;5.40;;
14554;SDS011;7364;50.870;4.722;2024-02-21T06:10:11;8.87;;;4.90;;
14554;SDS011;7364;50.870;4.722;2024-02-21T06:12:38;8.70;;;5.43;;
14554;SDS011;7364;50.870;4.722;2024-02-21T06:15:06;11.00;;;4.53;;
14554;SDS011;7364;50.870;4.722;2024-02-21T06:17:34;7.27;;;5.10;;
14554;SDS011;7364;50.870;4.722;2024-02-21T06:20:01;6.20;;;4.60;;
14554;SDS011;7364;50.870;4.722;2024-02-21T06:22:30;5.30;;;4.17;;
14554;SDS011;7364;50.870;4.722;2024-02-21T06:24:58;8.53;;;4.57;;
14554;SDS011;7364;50.870;4.722;2024-02-21T06:27:26;9.10;;;5.33;;
14554;SDS011;7364;50.870;4.722;2024-02-21T06:29:53;10.87;;;5.03;;
14554;SDS011;7364;50.870;4.722;2024-02-21T06:32:20;10.33;;;5.50;;
14554;SDS011;7364;50.870;4.722;2024-02-21T06:34:48;7.87;;;5.27;;
14554;SDS011;7364;50.870;4.722;2024-02-21T06:37:15;14.43;;;5.90;;
14554;SDS011;7364;50.870;4.722;2024-02-21T06:39:42;11.83;;;6.03;;
14554;SDS011;7364;50.870;4.722;2024-02-21T06:42:11;9.00;;;5.50;;
14554;SDS011;7364;50.870;4.722;2024-02-21T06:44:38;8.67;;;5.33;;
14554;SDS011;7364;50.870;4.722;2024-02-21T06:47:06;15.00;;;5.43;;
14554;SDS011;7364;50.870;4.722;2024-02-21T06:49:34;10.17;;;5.30;;
14554;SDS011;7364;50.870;4.722;2024-02-21T06:52:02;14.33;;;6.23;;
14554;SDS011;7364;50.870;4.722;2024-02-21T06:54:30;11.80;;;5.80;;
14554;SDS011;7364;50.870;4.722;2024-02-21T06:56:58;11.80;;;5.90;;
14554;SDS011;7364;50.870;4.722;2024-02-21T06:59:26;6.97;;;5.57;;
14554;SDS011;7364;50.870;4.722;2024-02-21T07:01:54;10.07;;;6.17;;
14554;SDS011;7364;50.870;4.722;2024-02-21T07:04:21;12.17;;;6.23;;
14554;SDS011;7364;50.870;4.722;2024-02-21T07:06:50;9.83;;;6.47;;
14554;SDS011;7364;50.870;4.722;2024-02-21T07:09:18;10.33;;;6.00;;
14554;SDS011;7364;50.870;4.722;2024-02-21T07:11:46;11.70;;;7.03;;
14554;SDS011;7364;50.870;4.722;2024-02-21T07:14:13;10.00;;;6.43;;
14554;SDS011;7364;50.870;4.722;2024-02-21T07:16:42;9.03;;;5.47;;
14554;SDS011;7364;50.870;4.722;2024-02-21T07:19:10;12.00;;;7.13;;
14554;SDS011;7364;50.870;4.722;2024-02-21T07:21:37;9.27;;;6.07;;
14554;SDS011;7364;50.870;4.722;2024-02-21T07:24:06;10.60;;;7.60;;
14554;SDS011;7364;50.870;4.722;2024-02-21T07:26:34;11.70;;;8.37;;
14554;SDS011;7364;50.870;4.722;2024-02-21T07:29:01;10.97;;;7.77;;
14554;SDS011;7364;50.870;4.722;2024-02-21T07:31:28;9.30;;;6.37;;
14554;SDS011;7364;50.870;4.722;2024-02-21T07:33:57;11.87;;;8.27;;
14554;SDS011;7364;50.870;4.722;2024-02-21T07:36:27;13.33;;;7.90;;
14554;SDS011;7364;50.870;4.722;2024-02-21T07:38:55;11.57;;;7.87;;
14554;SDS011;7364;50.870;4.722;2024-02-21T07:41:23;13.60;;;8.33;;
14554;SDS011;7364;50.870;4.722;2024-02-21T07:43:51;9.87;;;6.97;;
14554;SDS011;7364;50.870;4.722;2024-02-21T07:46:19;11.07;;;7.10;;
14554;SDS011;7364;50.870;4.722;2024-02-21T07:48:46;11.53;;;7.80;;
14554;SDS011;7364;50.870;4.722;2024-02-21T07:51:16;9.07;;;6.87;;
14554;SDS011;7364;50.870;4.722;2024-02-21T07:53:44;11.57;;;8.33;;
14554;SDS011;7364;50.870;4.722;2024-02-21T07:56:13;9.13;;;7.43;;
14554;SDS011;7364;50.870;4.722;2024-02-21T07:58:41;11.10;;;7.60;;
14554;SDS011;7364;50.870;4.722;2024-02-21T08:01:09;10.13;;;7.30;;
14554;SDS011;7364;50.870;4.722;2024-02-21T08:03:38;11.10;;;7.77;;
14554;SDS011;7364;50.870;4.722;2024-02-21T08:06:05;11.77;;;8.50;;
14554;SDS011;7364;50.870;4.722;2024-02-21T08:08:39;12.27;;;7.80;;
14554;SDS011;7364;50.870;4.722;2024-02-21T08:11:07;10.47;;;7.17;;
14554;SDS011;7364;50.870;4.722;2024-02-21T08:13:34;12.40;;;6.80;;
14554;SDS011;7364;50.870;4.722;2024-02-21T08:16:02;9.53;;;6.87;;
14554;SDS011;7364;50.870;4.722;2024-02-21T08:18:30;14.03;;;7.50;;
14554;SDS011;7364;50.870;4.722;2024-02-21T08:20:57;9.43;;;6.47;;
14554;SDS011;7364;50.870;4.722;2024-02-21T08:23:24;8.97;;;6.13;;
14554;SDS011;7364;50.870;4.722;2024-02-21T08:25:53;11.87;;;6.80;;
14554;SDS011;7364;50.870;4.722;2024-02-21T08:28:20;12.83;;;6.73;;
14554;SDS011;7364;50.870;4.722;2024-02-21T08:30:48;7.77;;;5.73;;
14554;SDS011;7364;50.870;4.722;2024-02-21T08:33:15;8.73;;;6.13;;
14554;SDS011;7364;50.870;4.722;2024-02-21T08:35:43;16.20;;;7.30;;
14554;SDS011;7364;50.870;4.722;2024-02-21T08:38:10;10.10;;;6.37;;
14554;SDS011;7364;50.870;4.722;2024-02-21T08:40:37;9.07;;;5.60;;
14554;SDS011;7364;50.870;4.722;2024-02-21T08:43:06;10.93;;;6.37;;
14554;SDS011;7364;50.870;4.722;2024-02-21T08:45:33;10.17;;;6.07;;
14554;SDS011;7364;50.870;4.722;2024-02-21T08:48:05;8.03;;;5.13;;
14554;SDS011;7364;50.870;4.722;2024-02-21T08:50:33;10.03;;;5.90;;
14554;SDS011;7364;50.870;4.722;2024-02-21T08:53:01;6.50;;;4.97;;
14554;SDS011;7364;50.870;4.722;2024-02-21T08:55:28;7.80;;;4.70;;
14554;SDS011;7364;50.870;4.722;2024-02-21T08:57:56;8.87;;;4.40;;
14554;SDS011;7364;50.870;4.722;2024-02-21T09:00:24;7.20;;;4.90;;
14554;SDS011;7364;50.870;4.722;2024-02-21T09:02:52;5.80;;;4.60;;
14554;SDS011;7364;50.870;4.722;2024-02-21T09:05:21;5.90;;;4.40;;
14554;SDS011;7364;50.870;4.722;2024-02-21T09:07:49;7.07;;;4.20;;
14554;SDS011;7364;50.870;4.722;2024-02-21T09:10:16;5.43;;;3.47;;
14554;SDS011;7364;50.870;4.722;2024-02-21T09:12:44;7.13;;;3.33;;
14554;SDS011;7364;50.870;4.722;2024-02-21T09:15:11;6.37;;;3.83;;
14554;SDS011;7364;50.870;4.722;2024-02-21T09:17:40;9.87;;;4.80;;
14554;SDS011;7364;50.870;4.722;2024-02-21T09:20:07;7.80;;;3.97;;
14554;SDS011;7364;50.870;4.722;2024-02-21T09:22:37;5.83;;;4.00;;
14554;SDS011;7364;50.870;4.722;2024-02-21T09:25:05;8.60;;;4.03;;
14554;SDS011;7364;50.870;4.722;2024-02-21T09:27:33;7.53;;;3.83;;
14554;SDS011;7364;50.870;4.722;2024-02-21T09:30:00;7.43;;;4.17;;
14554;SDS011;7364;50.870;4.722;2024-02-21T09:32:29;8.63;;;4.93;;
14554;SDS011;7364;50.870;4.722;2024-02-21T09:35:01;5.87;;;3.53;;
14554;SDS011;7364;50.870;4.722;2024-02-21T09:37:29;6.33;;;3.73;;
14554;SDS011;7364;50.870;4.722;2024-02-21T09:39:56;7.83;;;3.73;;
14554;SDS011;7364;50.870;4.722;2024-02-21T09:42:25;5.37;;;3.37;;
14554;SDS011;7364;50.870;4.722;2024-02-21T09:45:03;4.90;;;3.30;;
14554;SDS011;7364;50.870;4.722;2024-02-21T09:47:39;5.03;;;3.97;;
14554;SDS011;7364;50.870;4.722;2024-02-21T09:50:15;6.13;;;3.40;;
14554;SDS011;7364;50.870;4.722;2024-02-21T09:52:44;14.20;;;4.20;;
14554;SDS011;7364;50.870;4.722;2024-02-21T09:55:12;11.10;;;3.63;;
14554;SDS011;7364;50.870;4.722;2024-02-21T09:57:41;10.97;;;3.67;;
14554;SDS011;7364;50.870;4.722;2024-02-21T10:00:11;7.80;;;3.70;;
14554;SDS011;7364;50.870;4.722;2024-02-21T10:02:47;8.77;;;4.27;;
14554;SDS011;7364;50.870;4.722;2024-02-21T10:05:16;8.40;;;4.10;;
14554;SDS011;7364;50.870;4.722;2024-02-21T10:07:44;4.70;;;3.23;;
14554;SDS011;7364;50.870;4.722;2024-02-21T10:10:11;7.63;;;4.20;;
14554;SDS011;7364;50.870;4.722;2024-02-21T10:12:47;5.63;;;3.47;;
14554;SDS011;7364;50.870;4.722;2024-02-21T10:15:19;6.00;;;3.53;;
14554;SDS011;7364;50.870;4.722;2024-02-21T10:17:48;5.83;;;3.37;;
14554;SDS011;7364;50.870;4.722;2024-02-21T10:20:17;7.77;;;3.97;;
14554;SDS011;7364;50.870;4.722;2024-02-21T10:22:45;4.37;;;3.07;;
14554;SDS011;7364;50.870;4.722;2024-02-21T10:25:13;6.73;;;4.00;;
14554;SDS011;7364;50.870;4.722;2024-02-21T10:27:41;4.30;;;3.50;;
14554;SDS011;7364;50.870;4.722;2024-02-21T10:30:13;7.27;;;3.73;;
14554;SDS011;7364;50.870;4.722;2024-02-21T10:32:48;7.20;;;3.70;;
14554;SDS011;7364;50.870;4.722;2024-02-21T10:35:26;7.07;;;3.90;;
14554;SDS011;7364;50.870;4.722;2024-02-21T10:37:54;5.73;;;3.37;;
14554;SDS011;7364;50.870;4.722;2024-02-21T10:40:23;7.63;;;3.60;;
14554;SDS011;7364;50.870;4.722;2024-02-21T10:42:52;4.97;;;3.00;;
14554;SDS011;7364;50.870;4.722;2024-02-21T10:45:28;6.90;;;3.67;;
14554;SDS011;7364;50.870;4.722;2024-02-21T10:48:08;9.70;;;4.00;;
14554;SDS011;7364;50.870;4.722;2024-02-21T10:50:55;8.23;;;3.93;;
14554;SDS011;7364;50.870;4.722;2024-02-21T10:53:27;4.47;;;2.87;;
14554;SDS011;7364;50.870;4.722;2024-02-21T10:56:05;5.00;;;2.90;;
14554;SDS011;7364;50.870;4.722;2024-02-21T10:58:38;8.20;;;3.43;;
14554;SDS011;7364;50.870;4.722;2024-02-21T11:01:06;9.77;;;3.30;;
14554;SDS011;7364;50.870;4.722;2024-02-21T11:03:34;5.87;;;3.10;;
14554;SDS011;7364;50.870;4.722;2024-02-21T11:06:04;5.83;;;3.10;;
14554;SDS011;7364;50.870;4.722;2024-02-21T11:08:33;11.83;;;3.87;;
14554;SDS011;7364;50.870;4.722;2024-02-21T11:11:01;6.73;;;3.40;;
14554;SDS011;7364;50.870;4.722;2024-02-21T11:13:31;4.73;;;3.03;;
14554;SDS011;7364;50.870;4.722;2024-02-21T11:16:08;8.53;;;3.20;;
14554;SDS011;7364;50.870;4.722;2024-02-21T11:18:39;6.20;;;3.13;;
14554;SDS011;7364;50.870;4.722;2024-02-21T11:21:07;6.37;;;3.23;;
14554;SDS011;7364;50.870;4.722;2024-02-21T11:23:34;4.87;;;3.00;;
14554;SDS011;7364;50.870;4.722;2024-02-21T11:26:04;6.43;;;3.17;;
14554;SDS011;7364;50.870;4.722;2024-02-21T11:28:32;6.33;;;3.03;;
14554;SDS011;7364;50.870;4.722;2024-02-21T11:31:12;5.30;;;3.20;;
14554;SDS011;7364;50.870;4.722;2024-02-21T11:33:40;8.37;;;2.80;;
14554;SDS011;7364;50.870;4.722;2024-02-21T11:36:11;7.03;;;3.57;;
14554;SDS011;7364;50.870;4.722;2024-02-21T11:38:51;7.57;;;3.63;;
14554;SDS011;7364;50.870;4.722;2024-02-21T11:41:18;3.50;;;2.13;;
14554;SDS011;7364;50.870;4.722;2024-02-21T11:43:46;5.13;;;2.83;;
14554;SDS011;7364;50.870;4.722;2024-02-21T11:46:14;7.30;;;2.57;;
14554;SDS011;7364;50.870;4.722;2024-02-21T11:48:42;5.80;;;2.83;;
14554;SDS011;7364;50.870;4.722;2024-02-21T11:51:24;9.73;;;2.97;;
14554;SDS011;7364;50.870;4.722;2024-02-21T11:53:52;10.87;;;3.33;;
14554;SDS011;7364;50.870;4.722;2024-02-21T11:56:20;4.23;;;2.30;;
14554;SDS011;7364;50.870;4.722;2024-02-21T11:58:48;3.60;;;2.07;;
14554;SDS011;7364;50.870;4.722;2024-02-21T12:01:15;7.03;;;2.50;;
14554;SDS011;7364;50.870;4.722;2024-02-21T12:03:43;4.20;;;2.83;;
14554;SDS011;7364;50.870;4.722;2024-02-21T12:06:15;11.30;;;2.50;;
14554;SDS011;7364;50.870;4.722;2024-02-21T12:08:48;8.23;;;2.50;;
14554;SDS011;7364;50.870;4.722;2024-02-21T12:11:16;3.43;;;2.20;;
14554;SDS011;7364;50.870;4.722;2024-02-21T12:13:45;6.33;;;2.97;;
14554;SDS011;7364;50.870;4.722;2024-02-21T12:16:14;3.07;;;2.30;;
14554;SDS011;7364;50.870;4.722;2024-02-21T12:18:43;5.53;;;2.93;;
14554;SDS011;7364;50.870;4.722;2024-02-21T12:21:11;3.93;;;2.57;;
14554;SDS011;7364;50.870;4.722;2024-02-21T12:23:38;4.03;;;2.10;;
14554;SDS011;7364;50.870;4.722;2024-02-21T12:26:07;5.53;;;2.70;;
14554;SDS011;7364;50.870;4.722;2024-02-21T12:28:35;4.57;;;2.23;;
14554;SDS011;7364;50.870;4.722;2024-02-21T12:31:02;5.80;;;2.57;;
14554;SDS011;7364;50.870;4.722;2024-02-21T12:33:30;6.60;;;2.70;;
14554;SDS011;7364;50.870;4.722;2024-02-21T12:35:58;5.80;;;3.13;;
14554;SDS011;7364;50.870;4.722;2024-02-21T12:38:25;4.23;;;2.40;;
14554;SDS011;7364;50.870;4.722;2024-02-21T12:40:53;3.90;;;2.50;;
14554;SDS011;7364;50.870;4.722;2024-02-21T12:43:23;6.23;;;2.40;;
14554;SDS011;7364;50.870;4.722;2024-02-21T12:45:51;6.07;;;3.20;;
14554;SDS011;7364;50.870;4.722;2024-02-21T12:48:18;5.70;;;3.17;;
14554;SDS011;7364;50.870;4.722;2024-02-21T12:50:48;4.67;;;2.57;;
14554;SDS011;7364;50.870;4.722;2024-02-21T12:53:15;5.23;;;2.50;;
14554;SDS011;7364;50.870;4.722;2024-02-21T12:55:44;4.80;;;2.60;;
14554;SDS011;7364;50.870;4.722;2024-02-21T12:58:11;9.33;;;3.40;;
14554;SDS011;7364;50.870;4.722;2024-02-21T13:00:41;7.43;;;3.23;;
14554;SDS011;7364;50.870;4.722;2024-02-21T13:03:08;4.63;;;2.83;;
14554;SDS011;7364;50.870;4.722;2024-02-21T13:05:36;2.60;;;2.20;;
14554;SDS011;7364;50.870;4.722;2024-02-21T13:08:04;5.00;;;3.13;;
14554;SDS011;7364;50.870;4.722;2024-02-21T13:10:32;6.17;;;3.17;;
14554;SDS011;7364;50.870;4.722;2024-02-21T13:12:59;7.13;;;3.27;;
14554;SDS011;7364;50.870;4.722;2024-02-21T13:15:28;8.17;;;3.27;;
14554;SDS011;7364;50.870;4.722;2024-02-21T13:17:57;5.37;;;3.00;;
14554;SDS011;7364;50.870;4.722;2024-02-21T13:20:25;4.27;;;2.83;;
14554;SDS011;7364;50.870;4.722;2024-02-21T13:22:53;5.90;;;3.30;;
14554;SDS011;7364;50.870;4.722;2024-02-21T13:25:21;6.37;;;3.27;;
14554;SDS011;7364;50.870;4.722;2024-02-21T13:27:49;5.37;;;2.87;;
14554;SDS011;7364;50.870;4.722;2024-02-21T13:30:17;6.50;;;3.03;;
14554;SDS011;7364;50.870;4.722;2024-02-21T13:32:44;4.57;;;3.17;;
14554;SDS011;7364;50.870;4.722;2024-02-21T13:35:14;11.60;;;4.07;;
14554;SDS011;7364;50.870;4.722;2024-02-21T13:37:41;4.90;;;3.00;;
14554;SDS011;7364;50.870;4.722;2024-02-21T13:40:10;4.47;;;3.13;;
14554;SDS011;7364;50.870;4.722;2024-02-21T13:42:38;7.50;;;3.00;;
14554;SDS011;7364;50.870;4.722;2024-02-21T13:45:06;8.73;;;2.87;;
14554;SDS011;7364;50.870;4.722;2024-02-21T13:47:34;6.00;;;3.47;;
14554;SDS011;7364;50.870;4.722;2024-02-21T13:50:04;9.37;;;3.10;;
14554;SDS011;7364;50.870;4.722;2024-02-21T13:52:37;6.67;;;3.20;;
14554;SDS011;7364;50.870;4.722;2024-02-21T13:55:04;6.00;;;3.50;;
14554;SDS011;7364;50.870;4.722;2024-02-21T13:57:33;4.40;;;3.07;;
14554;SDS011;7364;50.870;4.722;2024-02-21T14:00:01;5.97;;;3.73;;
14554;SDS011;7364;50.870;4.722;2024-02-21T14:02:30;10.57;;;3.17;;
14554;SDS011;7364;50.870;4.722;2024-02-21T14:04:57;6.53;;;3.40;;
14554;SDS011;7364;50.870;4.722;2024-02-21T14:07:24;8.43;;;3.87;;
14554;SDS011;7364;50.870;4.722;2024-02-21T14:09:53;4.73;;;2.93;;
14554;SDS011;7364;50.870;4.722;2024-02-21T14:12:21;7.20;;;3.43;;
14554;SDS011;7364;50.870;4.722;2024-02-21T14:14:48;5.97;;;3.10;;
14554;SDS011;7364;50.870;4.722;2024-02-21T14:17:17;8.80;;;3.67;;
14554;SDS011;7364;50.870;4.722;2024-02-21T14:19:45;5.47;;;3.43;;
14554;SDS011;7364;50.870;4.722;2024-02-21T14:22:12;9.30;;;3.67;;
14554;SDS011;7364;50.870;4.722;2024-02-21T14:24:39;6.17;;;3.13;;
14554;SDS011;7364;50.870;4.722;2024-02-21T14:27:08;5.63;;;2.97;;
14554;SDS011;7364;50.870;4.722;2024-02-21T14:29:35;5.23;;;3.00;;
14554;SDS011;7364;50.870;4.722;2024-02-21T14:32:03;9.70;;;3.47;;
14554;SDS011;7364;50.870;4.722;2024-02-21T14:34:31;6.23;;;3.37;;
14554;SDS011;7364;50.870;4.722;2024-02-21T14:36:58;5.30;;;3.23;;
14554;SDS011;7364;50.870;4.722;2024-02-21T14:39:25;6.97;;;3.73;;
14554;SDS011;7364;50.870;4.722;2024-02-21T14:41:53;8.37;;;3.23;;
14554;SDS011;7364;50.870;4.722;2024-02-21T14:44:22;12.13;;;3.73;;
14554;SDS011;7364;50.870;4.722;2024-02-21T14:46:49;5.33;;;3.17;;
14554;SDS011;7364;50.870;4.722;2024-02-21T14:49:17;5.13;;;3.30;;
14554;SDS011;7364;50.870;4.722;2024-02-21T14:51:45;6.50;;;3.43;;
14554;SDS011;7364;50.870;4.722;2024-02-21T14:54:12;7.83;;;4.13;;
14554;SDS011;7364;50.870;4.722;2024-02-21T14:56:39;5.93;;;3.07;;
14554;SDS011;7364;50.870;4.722;2024-02-21T14:59:06;8.40;;;4.33;;